Time;durP1;ratioP1;P1;durP2;ratioP2;P2;SDS_P1;SDS_P2;PMS_P1;PMS_P2;Temp;Humidity;BMP_temperature;BMP_pressure;BME280_temperature;BME280_humidity;BME280_pressure;Samples;Min_cycle;Max_cycle;Signal;HPM_P1;HPM_P2
2024/02/21 00:00:30;;;;;;;16.27;8.02;;;6.40;99.90;;;;;;493936;241;28829;-73
2024/02/21 00:02:31;;;;;;;15.80;7.80;;;6.40;99.90;;;;;;493907;241;28090;-73
2024/02/21 00:04:33;;;;;;;18.30;8.30;;;6.40;99.90;;;;;;493999;241;27966;-73
2024/02/21 00:06:34;;;;;;;14.75;6.53;;;6.40;99.90;;;;;;493989;241;27506;-73
2024/02/21 00:08:35;;;;;;;20.12;9.27;;;6.40;99.90;;;;;;494042;241;27610;-73
2024/02/21 00:10:37;;;;;;;18.85;8.73;;;6.40;99.90;;;;;;494012;241;27470;-73
2024/02/21 00:12:38;;;;;;;19.10;8.00;;;6.40;99.90;;;;;;493928;241;28149;-74
2024/02/21 00:14:39;;;;;;;14.45;6.97;;;6.50;99.90;;;;;;493999;241;28076;-75
2024/02/21 00:16:40;;;;;;;17.27;8.88;;;6.40;99.90;;;;;;493779;241;27493;-74
2024/02/21 00:18:42;;;;;;;16.50;8.73;;;6.40;99.90;;;;;;494021;241;27509;-74
2024/02/21 00:20:43;;;;;;;15.65;7.72;;;6.50;99.90;;;;;;493989;241;28817;-72
2024/02/21 00:22:44;;;;;;;20.70;7.80;;;6.40;99.90;;;;;;493945;237;27571;-73
2024/02/21 00:24:45;;;;;;;23.25;9.00;;;6.40;99.90;;;;;;493992;241;28043;-75
2024/02/21 00:26:47;;;;;;;16.00;6.78;;;6.50;99.90;;;;;;493967;241;27929;-74
2024/02/21 00:28:48;;;;;;;17.52;8.55;;;6.50;99.90;;;;;;494016;241;27508;-71
2024/02/21 00:30:50;;;;;;;22.20;8.90;;;6.50;99.90;;;;;;493973;241;27572;-73
2024/02/21 00:32:50;;;;;;;28.00;9.10;;;6.50;99.90;;;;;;493953;237;28949;-73
2024/02/21 00:34:52;;;;;;;16.40;7.70;;;6.50;99.90;;;;;;494001;241;27498;-74
2024/02/21 00:36:53;;;;;;;23.20;8.68;;;6.50;99.90;;;;;;493969;241;27982;-73
2024/02/21 00:38:54;;;;;;;13.85;7.25;;;6.50;99.90;;;;;;493978;241;27524;-74
2024/02/21 00:40:56;;;;;;;19.02;8.43;;;6.50;99.90;;;;;;494018;241;27501;-75
2024/02/21 00:42:57;;;;;;;26.70;9.73;;;6.50;99.90;;;;;;493996;241;27477;-73
2024/02/21 00:44:58;;;;;;;17.40;8.30;;;6.50;99.90;;;;;;494006;241;28654;-74
2024/02/21 00:46:59;;;;;;;16.00;8.02;;;6.40;99.90;;;;;;493964;241;28509;-71
2024/02/21 00:49:00;;;;;;;12.90;7.20;;;6.40;99.90;;;;;;494014;241;27580;-72
2024/02/21 00:51:02;;;;;;;21.25;9.57;;;6.40;99.90;;;;;;494041;241;28059;-76
2024/02/21 00:53:03;;;;;;;18.73;9.20;;;6.40;99.90;;;;;;493919;241;27509;-73
2024/02/21 00:55:04;;;;;;;27.55;9.65;;;6.40;99.90;;;;;;493916;241;27525;-73
2024/02/21 00:57:06;;;;;;;15.85;8.02;;;6.30;99.90;;;;;;493945;237;27522;-74
2024/02/21 00:59:07;;;;;;;20.55;9.35;;;6.30;99.90;;;;;;494002;241;27482;-73
2024/02/21 01:01:08;;;;;;;22.98;9.85;;;6.30;99.90;;;;;;493949;237;28012;-73
2024/02/21 01:03:09;;;;;;;19.85;8.93;;;6.20;99.90;;;;;;493983;241;28023;-73
2024/02/21 01:05:11;;;;;;;19.27;8.10;;;6.20;99.90;;;;;;493962;241;27514;-74
2024/02/21 01:07:12;;;;;;;19.58;7.47;;;6.20;99.90;;;;;;493969;241;27553;-76
2024/02/21 01:09:14;;;;;;;22.95;10.10;;;6.20;99.90;;;;;;493949;241;27460;-71
2024/02/21 01:11:14;;;;;;;14.95;8.00;;;6.30;99.90;;;;;;494003;241;27505;-74
2024/02/21 01:13:16;;;;;;;15.82;8.30;;;6.30;99.90;;;;;;493962;241;27906;-73
2024/02/21 01:15:17;;;;;;;10.77;6.95;;;6.30;99.90;;;;;;493981;241;27482;-73
2024/02/21 01:17:18;;;;;;;20.58;9.18;;;6.30;99.90;;;;;;493956;241;27600;-74
2024/02/21 01:19:19;;;;;;;19.48;9.15;;;6.20;99.90;;;;;;493982;241;27480;-73
2024/02/21 01:21:21;;;;;;;14.15;7.53;;;6.20;99.90;;;;;;493998;240;27509;-73
2024/02/21 01:23:22;;;;;;;19.77;8.68;;;6.20;99.90;;;;;;493951;241;28033;-73
2024/02/21 01:25:23;;;;;;;22.13;8.65;;;6.20;99.90;;;;;;494011;241;27930;-72
2024/02/21 01:27:24;;;;;;;22.85;10.30;;;6.20;99.90;;;;;;493948;241;27643;-74
2024/02/21 01:29:26;;;;;;;17.73;8.27;;;6.20;99.90;;;;;;493942;241;27521;-73
2024/02/21 01:31:27;;;;;;;20.13;9.13;;;6.20;99.90;;;;;;493963;241;28855;-73
2024/02/21 01:33:34;;;;;;;16.67;7.47;;;6.30;99.90;;;;;;493952;241;28524;-74
2024/02/21 01:35:29;;;;;;;22.40;8.30;;;6.30;99.90;;;;;;493775;241;28071;-73
2024/02/21 01:37:31;;;;;;;19.27;8.80;;;6.30;99.90;;;;;;493944;241;27974;-73
2024/02/21 01:39:32;;;;;;;12.75;6.80;;;6.20;99.90;;;;;;493941;241;29264;-73
2024/02/21 01:41:33;;;;;;;22.27;8.85;;;6.20;99.90;;;;;;493949;241;27485;-72
2024/02/21 01:43:35;;;;;;;14.25;7.40;;;6.20;99.90;;;;;;493912;241;27644;-72
2024/02/21 01:45:36;;;;;;;23.48;7.62;;;6.20;99.90;;;;;;493938;241;27461;-73
2024/02/21 01:47:37;;;;;;;24.98;8.02;;;6.20;99.90;;;;;;493916;241;27591;-73
2024/02/21 01:49:38;;;;;;;24.35;8.40;;;6.20;99.90;;;;;;493960;237;28024;-74
2024/02/21 01:51:40;;;;;;;22.00;8.93;;;6.20;99.90;;;;;;494002;241;27953;-72
2024/02/21 01:53:41;;;;;;;18.83;8.18;;;6.10;99.90;;;;;;493962;241;27532;-74
2024/02/21 01:55:42;;;;;;;12.50;6.70;;;6.10;99.90;;;;;;493965;241;27554;-73
2024/02/21 01:57:45;;;;;;;8.75;5.97;;;6.10;99.90;;;;;;493925;241;27510;-74
2024/02/21 01:59:45;;;;;;;19.35;7.93;;;6.10;99.90;;;;;;493924;241;27554;-73
2024/02/21 02:01:46;;;;;;;17.17;7.65;;;6.10;99.90;;;;;;493981;241;27936;-71
2024/02/21 02:03:47;;;;;;;20.55;6.97;;;6.00;99.90;;;;;;493940;241;28105;-74
2024/02/21 02:05:48;;;;;;;20.48;6.78;;;6.00;99.90;;;;;;493993;241;27459;-73
2024/02/21 02:07:50;;;;;;;13.50;6.78;;;6.10;99.90;;;;;;493987;241;27478;-73
2024/02/21 02:09:51;;;;;;;16.17;6.47;;;6.10;99.90;;;;;;494003;241;27610;-74
2024/02/21 02:11:52;;;;;;;16.48;7.03;;;6.10;99.90;;;;;;493972;241;27461;-73
2024/02/21 02:13:54;;;;;;;14.68;7.00;;;6.10;99.90;;;;;;493928;241;28009;-73
2024/02/21 02:15:55;;;;;;;12.37;6.60;;;6.10;99.90;;;;;;493996;241;27584;-74
2024/02/21 02:17:56;;;;;;;14.23;6.75;;;6.10;99.90;;;;;;493742;241;27474;-74
2024/02/21 02:19:57;;;;;;;15.13;7.10;;;6.10;99.90;;;;;;493958;241;27524;-74
2024/02/21 02:21:58;;;;;;;13.45;5.80;;;6.10;99.90;;;;;;493940;241;27580;-73
2024/02/21 02:24:00;;;;;;;12.63;6.70;;;6.10;99.90;;;;;;493945;241;27616;-73
2024/02/21 02:26:01;;;;;;;9.55;5.65;;;6.20;99.90;;;;;;494008;241;27976;-72
2024/02/21 02:28:02;;;;;;;18.35;7.03;;;6.20;99.90;;;;;;493881;241;27556;-71
2024/02/21 02:30:04;;;;;;;20.30;7.85;;;6.20;99.90;;;;;;493974;241;27601;-71
2024/02/21 02:32:05;;;;;;;19.20;8.48;;;6.20;99.90;;;;;;493827;241;27516;-70
2024/02/21 02:34:06;;;;;;;11.93;6.10;;;6.20;99.90;;;;;;493949;241;27550;-71
2024/02/21 02:36:07;;;;;;;21.08;7.72;;;6.20;99.90;;;;;;493967;241;28892;-72
2024/02/21 02:38:09;;;;;;;15.57;6.45;;;6.20;99.90;;;;;;493906;241;27986;-71
2024/02/21 02:40:10;;;;;;;12.02;5.65;;;6.20;99.90;;;;;;493935;241;27612;-74
2024/02/21 02:42:11;;;;;;;11.40;6.10;;;6.10;99.90;;;;;;493977;241;27620;-73
2024/02/21 02:44:12;;;;;;;21.08;7.75;;;6.00;99.90;;;;;;493978;241;27481;-71
2024/02/21 02:46:14;;;;;;;10.65;5.60;;;6.00;99.90;;;;;;493977;241;27503;-72
2024/02/21 02:48:15;;;;;;;12.40;6.05;;;6.00;99.90;;;;;;493899;241;28052;-73
2024/02/21 02:50:16;;;;;;;19.58;7.70;;;6.00;99.90;;;;;;493952;241;28021;-71
2024/02/21 02:52:18;;;;;;;18.05;6.82;;;6.00;99.90;;;;;;494003;241;27528;-74
2024/02/21 02:54:19;;;;;;;13.40;6.05;;;6.10;99.90;;;;;;493944;241;27489;-71
2024/02/21 02:56:20;;;;;;;17.90;7.15;;;6.10;99.90;;;;;;493938;241;27526;-72
2024/02/21 02:58:21;;;;;;;22.60;6.95;;;6.10;99.90;;;;;;493887;241;27555;-73
2024/02/21 03:00:22;;;;;;;12.77;6.00;;;6.10;99.90;;;;;;493993;241;28016;-72
2024/02/21 03:02:24;;;;;;;18.83;7.00;;;6.20;99.90;;;;;;493975;241;27992;-72
2024/02/21 03:04:25;;;;;;;15.07;7.30;;;6.20;99.90;;;;;;493945;241;27521;-72
2024/02/21 03:06:26;;;;;;;13.52;5.90;;;6.20;99.90;;;;;;493856;241;27499;-74
2024/02/21 03:08:27;;;;;;;20.00;7.60;;;6.20;99.90;;;;;;493987;241;27883;-75
2024/02/21 03:10:29;;;;;;;13.50;6.87;;;6.20;99.90;;;;;;493976;241;28811;-71
2024/02/21 03:12:30;;;;;;;16.40;7.47;;;6.20;99.90;;;;;;493945;237;28059;-72
2024/02/21 03:14:31;;;;;;;15.43;7.45;;;6.20;99.90;;;;;;493939;241;27469;-74
2024/02/21 03:16:33;;;;;;;19.67;7.43;;;6.20;99.90;;;;;;493906;241;27487;-74
2024/02/21 03:18:34;;;;;;;26.60;7.32;;;6.30;99.90;;;;;;493980;241;27631;-72
2024/02/21 03:20:35;;;;;;;20.95;6.05;;;6.30;99.90;;;;;;493956;241;27517;-75
2024/02/21 03:22:36;;;;;;;12.68;5.90;;;6.30;99.90;;;;;;493890;241;28089;-73
2024/02/21 03:24:38;;;;;;;15.20;6.53;;;6.30;99.90;;;;;;493942;241;28183;-73
2024/02/21 03:26:40;;;;;;;18.33;6.47;;;6.30;99.90;;;;;;493902;241;27453;-74
2024/02/21 03:28:40;;;;;;;17.67;7.22;;;6.40;99.90;;;;;;493905;241;27549;-73
2024/02/21 03:30:41;;;;;;;14.63;5.80;;;6.30;99.90;;;;;;493863;241;27468;-74
2024/02/21 03:32:43;;;;;;;20.33;7.05;;;6.30;99.90;;;;;;493881;241;27505;-73
2024/02/21 03:34:44;;;;;;;12.23;5.67;;;6.30;99.90;;;;;;493918;241;28003;-75
2024/02/21 03:36:45;;;;;;;10.10;5.03;;;6.30;99.90;;;;;;493895;241;29307;-73
2024/02/21 03:38:47;;;;;;;11.68;5.55;;;6.30;99.90;;;;;;493918;241;27495;-73
2024/02/21 03:40:48;;;;;;;15.90;7.30;;;6.40;99.90;;;;;;493804;241;27529;-76
2024/02/21 03:42:49;;;;;;;14.48;6.03;;;6.40;99.90;;;;;;493918;241;29256;-74
2024/02/21 03:44:50;;;;;;;12.93;6.20;;;6.30;99.90;;;;;;493952;241;27516;-74
2024/02/21 03:46:51;;;;;;;17.52;6.80;;;6.30;99.90;;;;;;493849;241;28004;-70
2024/02/21 03:48:53;;;;;;;15.57;5.70;;;6.30;99.90;;;;;;493930;241;28118;-74
2024/02/21 03:50:54;;;;;;;15.70;7.18;;;6.30;99.90;;;;;;493970;241;27607;-71
2024/02/21 03:52:55;;;;;;;12.32;6.30;;;6.30;99.90;;;;;;493968;241;27477;-71
2024/02/21 03:54:56;;;;;;;9.02;5.30;;;6.30;99.90;;;;;;493966;241;27505;-72
2024/02/21 03:56:58;;;;;;;19.00;6.77;;;6.30;99.90;;;;;;493743;241;27466;-74
2024/02/21 03:58:59;;;;;;;13.23;6.20;;;6.30;99.90;;;;;;493949;241;29368;-72
2024/02/21 04:01:01;;;;;;;13.60;6.15;;;6.30;99.90;;;;;;493970;241;28035;-76
2024/02/21 04:03:02;;;;;;;15.65;7.12;;;6.30;99.90;;;;;;493967;241;27573;-74
2024/02/21 04:05:03;;;;;;;16.50;6.60;;;6.30;99.90;;;;;;493946;241;27551;-74
2024/02/21 04:07:08;;;;;;;9.30;5.43;;;6.30;99.90;;;;;;493897;241;27473;-71
2024/02/21 04:09:08;;;;;;;20.03;6.23;;;6.30;99.90;;;;;;493895;241;27925;-71
2024/02/21 04:11:09;;;;;;;13.87;5.80;;;6.30;99.90;;;;;;493969;241;28360;-72
2024/02/21 04:13:10;;;;;;;13.90;5.50;;;6.30;99.90;;;;;;493971;237;28322;-73
2024/02/21 04:15:12;;;;;;;17.87;5.78;;;6.30;99.90;;;;;;493983;241;27574;-71
2024/02/21 04:17:13;;;;;;;17.90;6.50;;;6.30;99.90;;;;;;493899;241;27603;-73
2024/02/21 04:19:14;;;;;;;16.62;6.00;;;6.30;99.90;;;;;;493952;241;27477;-73
2024/02/21 04:21:16;;;;;;;12.23;5.72;;;6.30;99.90;;;;;;494005;241;27981;-73
2024/02/21 04:23:17;;;;;;;13.98;5.85;;;6.30;99.90;;;;;;493828;241;28175;-73
2024/02/21 04:25:19;;;;;;;13.82;6.25;;;6.30;99.90;;;;;;493923;241;27564;-73
2024/02/21 04:27:19;;;;;;;16.77;5.50;;;6.30;99.90;;;;;;493859;241;27589;-73
2024/02/21 04:29:21;;;;;;;14.52;5.80;;;6.30;99.90;;;;;;493996;241;27868;-75
2024/02/21 04:31:22;;;;;;;15.50;5.40;;;6.30;99.90;;;;;;493960;241;27466;-73
2024/02/21 04:33:23;;;;;;;14.50;5.30;;;6.30;99.90;;;;;;493950;241;27596;-74
2024/02/21 04:35:24;;;;;;;15.07;6.20;;;6.30;99.90;;;;;;493927;241;27458;-74
2024/02/21 04:37:26;;;;;;;10.93;5.50;;;6.30;99.90;;;;;;493920;241;27605;-73
2024/02/21 04:39:27;;;;;;;20.67;6.55;;;6.20;99.90;;;;;;493964;241;28089;-74
2024/02/21 04:41:28;;;;;;;14.15;6.90;;;6.30;99.90;;;;;;493960;237;28112;-73
2024/02/21 04:43:29;;;;;;;21.15;5.87;;;6.20;99.90;;;;;;493943;241;27493;-74
2024/02/21 04:45:31;;;;;;;10.77;5.95;;;6.20;99.90;;;;;;493961;241;27608;-73
2024/02/21 04:47:32;;;;;;;26.25;6.75;;;6.20;99.90;;;;;;493944;241;27475;-73
2024/02/21 04:49:33;;;;;;;14.63;5.95;;;6.20;99.90;;;;;;494011;241;27658;-72
2024/02/21 04:51:35;;;;;;;13.38;6.70;;;6.30;99.90;;;;;;493984;241;27910;-73
2024/02/21 04:53:36;;;;;;;15.07;6.18;;;6.20;99.90;;;;;;494001;241;27538;-74
2024/02/21 04:55:37;;;;;;;19.58;7.05;;;6.20;99.90;;;;;;494015;241;27505;-75
2024/02/21 04:57:38;;;;;;;16.75;6.80;;;6.20;99.90;;;;;;493968;241;27467;-72
2024/02/21 04:59:40;;;;;;;15.70;7.20;;;6.10;99.90;;;;;;493945;241;27505;-74
2024/02/21 05:01:41;;;;;;;11.15;5.18;;;6.10;99.90;;;;;;493942;241;28306;-74
2024/02/21 05:03:42;;;;;;;9.05;5.90;;;6.20;99.90;;;;;;494038;241;28004;-73
2024/02/21 05:05:43;;;;;;;11.35;6.10;;;6.20;99.90;;;;;;494022;241;27548;-74
2024/02/21 05:07:45;;;;;;;21.35;7.12;;;6.10;99.90;;;;;;493997;241;27560;-71
2024/02/21 05:09:46;;;;;;;14.18;6.53;;;6.10;99.90;;;;;;493986;241;27505;-74
2024/02/21 05:11:47;;;;;;;13.30;6.68;;;6.10;99.90;;;;;;494038;241;27513;-75
2024/02/21 05:13:48;;;;;;;12.37;5.45;;;6.10;99.90;;;;;;494011;241;27951;-72
2024/02/21 05:15:50;;;;;;;13.02;6.20;;;6.10;99.90;;;;;;494026;241;27596;-72
2024/02/21 05:17:51;;;;;;;12.65;6.82;;;6.00;99.90;;;;;;493805;241;27540;-72
2024/02/21 05:19:52;;;;;;;10.90;5.43;;;6.00;99.90;;;;;;494010;241;27513;-72
2024/02/21 05:21:53;;;;;;;15.00;6.20;;;5.90;99.90;;;;;;494048;241;27541;-73
2024/02/21 05:23:55;;;;;;;9.93;5.90;;;5.90;99.90;;;;;;494012;241;27585;-72
2024/02/21 05:25:56;;;;;;;17.00;6.87;;;5.90;99.90;;;;;;493991;241;28014;-72
2024/02/21 05:28:01;;;;;;;12.82;6.62;;;5.80;99.90;;;;;;493941;241;27521;-71
2024/02/21 05:29:58;;;;;;;19.85;6.57;;;5.80;99.90;;;;;;493902;241;27548;-73
2024/02/21 05:32:00;;;;;;;12.82;5.70;;;5.80;99.90;;;;;;494043;241;27643;-72
2024/02/21 05:34:04;;;;;;;15.63;6.05;;;5.80;99.90;;;;;;493977;241;27482;-73
2024/02/21 05:36:02;;;;;;;13.60;5.53;;;5.80;99.90;;;;;;493893;241;28010;-71
2024/02/21 05:38:11;;;;;;;14.45;6.00;;;5.80;99.90;;;;;;493784;241;28083;-75
2024/02/21 05:40:07;;;;;;;10.23;6.05;;;5.80;99.90;;;;;;493871;241;27599;-75
2024/02/21 05:42:09;;;;;;;12.15;6.07;;;5.80;99.90;;;;;;494016;241;27478;-74
2024/02/21 05:44:10;;;;;;;11.48;6.40;;;5.80;99.90;;;;;;493964;241;28096;-74
2024/02/21 05:46:13;;;;;;;12.80;6.57;;;5.90;99.90;;;;;;493931;237;27947;-73
2024/02/21 05:48:13;;;;;;;12.27;6.40;;;5.90;99.90;;;;;;493837;241;27522;-72
2024/02/21 05:50:14;;;;;;;11.15;6.15;;;5.80;99.90;;;;;;493988;241;27534;-76
2024/02/21 05:52:15;;;;;;;15.52;6.43;;;5.90;99.90;;;;;;494010;241;27445;-74
2024/02/21 05:54:16;;;;;;;23.15;7.00;;;5.90;99.90;;;;;;494006;241;27518;-74
2024/02/21 05:56:18;;;;;;;18.85;7.55;;;5.90;99.90;;;;;;493967;241;28812;-72
2024/02/21 05:58:19;;;;;;;17.42;7.80;;;5.80;99.90;;;;;;493936;241;28098;-74
2024/02/21 06:00:20;;;;;;;14.80;6.15;;;5.80;99.90;;;;;;494033;241;27630;-74
2024/02/21 06:02:22;;;;;;;17.50;6.35;;;5.90;99.90;;;;;;493997;241;27576;-73
2024/02/21 06:04:23;;;;;;;14.05;6.40;;;5.90;99.90;;;;;;493934;241;27584;-71
2024/02/21 06:06:24;;;;;;;13.43;6.40;;;5.90;99.90;;;;;;493905;241;27530;-72
2024/02/21 06:08:25;;;;;;;23.58;7.07;;;5.90;99.90;;;;;;493963;241;27477;-71
2024/02/21 06:10:26;;;;;;;16.37;6.47;;;5.90;99.90;;;;;;493954;241;27602;-72
2024/02/21 06:12:28;;;;;;;8.93;6.47;;;5.90;99.90;;;;;;493957;241;27468;-73
2024/02/21 06:14:29;;;;;;;17.87;6.55;;;5.90;99.90;;;;;;493980;241;27931;-71
2024/02/21 06:16:30;;;;;;;13.13;5.95;;;5.90;99.90;;;;;;493925;241;27590;-73
2024/02/21 06:18:31;;;;;;;20.33;6.70;;;5.90;99.90;;;;;;493948;241;27533;-74
2024/02/21 06:20:35;;;;;;;14.18;6.65;;;5.90;99.90;;;;;;493967;241;27540;-72
2024/02/21 06:22:34;;;;;;;12.20;6.25;;;6.00;99.90;;;;;;493883;241;27565;-74
2024/02/21 06:24:36;;;;;;;16.75;6.32;;;5.90;99.90;;;;;;494012;241;27576;-72
2024/02/21 06:26:37;;;;;;;16.05;6.87;;;5.90;99.90;;;;;;493840;241;28040;-72
2024/02/21 06:28:38;;;;;;;13.93;5.68;;;5.90;99.90;;;;;;493947;241;27569;-72
2024/02/21 06:30:39;;;;;;;11.35;6.05;;;5.90;99.90;;;;;;493933;241;27506;-71
2024/02/21 06:32:40;;;;;;;15.40;6.15;;;5.90;99.90;;;;;;493991;241;27551;-73
2024/02/21 06:34:42;;;;;;;13.88;5.45;;;5.90;99.90;;;;;;493967;241;27495;-74
2024/02/21 06:36:43;;;;;;;20.00;6.85;;;5.90;99.90;;;;;;493889;241;27965;-72
2024/02/21 06:38:44;;;;;;;17.00;6.43;;;5.90;99.90;;;;;;493925;241;29563;-74
2024/02/21 06:40:49;;;;;;;13.38;6.12;;;5.90;99.90;;;;;;494024;241;27474;-72
2024/02/21 06:42:47;;;;;;;19.60;6.53;;;5.90;99.90;;;;;;493795;241;27504;-74
2024/02/21 06:44:48;;;;;;;13.02;6.47;;;5.90;99.90;;;;;;493928;241;27454;-74
2024/02/21 06:46:49;;;;;;;13.50;5.93;;;5.90;99.90;;;;;;493888;241;27521;-71
2024/02/21 06:48:50;;;;;;;12.75;5.50;;;6.00;99.90;;;;;;493960;241;28241;-73
2024/02/21 06:50:52;;;;;;;14.98;6.53;;;6.00;99.90;;;;;;493984;237;28064;-71
2024/02/21 06:52:53;;;;;;;13.02;5.35;;;6.00;99.90;;;;;;493939;241;27508;-72
2024/02/21 06:54:54;;;;;;;13.13;5.45;;;6.00;99.90;;;;;;493969;241;27471;-71
2024/02/21 06:56:55;;;;;;;10.90;5.10;;;6.00;99.90;;;;;;493892;241;27510;-71
2024/02/21 06:58:57;;;;;;;16.30;5.75;;;6.10;99.90;;;;;;493987;241;27526;-74
2024/02/21 07:00:58;;;;;;;8.93;5.55;;;6.10;99.90;;;;;;493968;241;27924;-71
2024/02/21 07:02:59;;;;;;;14.98;6.32;;;6.00;99.90;;;;;;493955;237;28014;-74
2024/02/21 07:05:01;;;;;;;16.58;6.87;;;6.00;99.90;;;;;;493958;241;27609;-74
2024/02/21 07:07:02;;;;;;;13.65;5.97;;;6.00;99.90;;;;;;493915;241;27581;-71
2024/02/21 07:09:03;;;;;;;12.55;5.30;;;6.00;99.90;;;;;;493979;241;27515;-72
2024/02/21 07:11:04;;;;;;;15.07;5.60;;;6.00;99.90;;;;;;493935;241;27557;-72
2024/02/21 07:13:06;;;;;;;10.82;5.30;;;6.10;99.90;;;;;;493922;237;28052;-73
2024/02/21 07:15:07;;;;;;;10.88;5.32;;;6.10;99.90;;;;;;493979;241;27620;-76
2024/02/21 07:17:08;;;;;;;11.68;4.62;;;6.20;99.90;;;;;;493931;241;27575;-73
2024/02/21 07:19:09;;;;;;;21.67;6.07;;;6.20;99.90;;;;;;493962;241;27542;-74
2024/02/21 07:21:11;;;;;;;15.02;5.22;;;6.20;99.90;;;;;;493935;241;27486;-71
2024/02/21 07:23:12;;;;;;;19.25;5.43;;;6.20;99.90;;;;;;493953;241;27528;-71
2024/02/21 07:25:13;;;;;;;20.17;5.20;;;6.30;99.90;;;;;;493939;241;28080;-72
2024/02/21 07:27:14;;;;;;;19.15;5.82;;;6.30;99.90;;;;;;493904;241;27484;-73
2024/02/21 07:29:16;;;;;;;12.90;5.18;;;6.30;99.90;;;;;;493946;241;27517;-72
2024/02/21 07:31:17;;;;;;;15.10;5.20;;;6.30;99.90;;;;;;493966;241;27593;-73
2024/02/21 07:33:18;;;;;;;15.63;5.40;;;6.30;99.90;;;;;;493940;241;27588;-71
2024/02/21 07:35:20;;;;;;;18.00;4.82;;;6.30;99.90;;;;;;493937;241;29357;-72
2024/02/21 07:37:21;;;;;;;13.27;5.25;;;6.30;99.90;;;;;;493879;241;27925;-72
2024/02/21 07:39:22;;;;;;;14.77;5.30;;;6.30;99.90;;;;;;493958;241;27617;-73
2024/02/21 07:41:23;;;;;;;12.68;5.50;;;6.40;99.90;;;;;;494010;241;27517;-76
2024/02/21 07:43:26;;;;;;;17.62;5.80;;;6.40;99.90;;;;;;493966;241;27576;-74
2024/02/21 07:45:26;;;;;;;12.23;5.90;;;6.40;99.90;;;;;;493887;237;27560;-73
2024/02/21 07:47:27;;;;;;;16.40;5.40;;;6.40;99.90;;;;;;493913;241;27982;-72
2024/02/21 07:49:28;;;;;;;12.05;5.47;;;6.40;99.90;;;;;;494008;241;27577;-71
2024/02/21 07:51:30;;;;;;;12.57;4.90;;;6.40;99.90;;;;;;493956;241;27530;-75
2024/02/21 07:53:31;;;;;;;16.65;5.53;;;6.40;99.90;;;;;;493948;241;27466;-73
2024/02/21 07:55:32;;;;;;;8.30;4.73;;;6.50;99.90;;;;;;493943;241;27500;-74
2024/02/21 07:57:33;;;;;;;9.75;4.37;;;6.50;99.90;;;;;;493940;241;28424;-72
2024/02/21 07:59:35;;;;;;;18.25;5.87;;;6.50;99.90;;;;;;493987;241;27908;-72
2024/02/21 08:01:36;;;;;;;12.07;4.93;;;6.50;99.90;;;;;;493984;241;27987;-72
2024/02/21 08:03:37;;;;;;;13.60;4.80;;;6.50;99.90;;;;;;493950;241;27983;-72
2024/02/21 08:05:38;;;;;;;6.77;4.67;;;6.60;99.90;;;;;;493937;241;28865;-72
2024/02/21 08:07:40;;;;;;;18.33;5.35;;;6.60;99.90;;;;;;493939;241;28787;-74
2024/02/21 08:09:41;;;;;;;16.83;5.40;;;6.60;99.90;;;;;;493977;241;27461;-72
2024/02/21 08:11:42;;;;;;;22.33;5.17;;;6.60;99.90;;;;;;493961;241;27628;-74
2024/02/21 08:13:43;;;;;;;19.37;5.80;;;6.70;99.90;;;;;;493943;241;29263;-72
2024/02/21 08:15:45;;;;;;;8.90;4.12;;;6.60;99.90;;;;;;493975;241;28302;-74
2024/02/21 08:17:46;;;;;;;21.45;6.22;;;6.60;99.90;;;;;;493936;241;28068;-72
2024/02/21 08:19:49;;;;;;;15.07;6.35;;;6.70;99.90;;;;;;493825;241;27504;-72
2024/02/21 08:21:48;;;;;;;11.68;5.00;;;6.60;99.90;;;;;;493876;241;27508;-74
2024/02/21 08:23:51;;;;;;;8.47;5.17;;;6.60;99.90;;;;;;493974;241;27493;-76
2024/02/21 08:25:51;;;;;;;12.37;4.90;;;6.70;99.90;;;;;;493967;237;27942;-74
2024/02/21 08:27:52;;;;;;;14.60;5.30;;;6.70;99.90;;;;;;493939;241;28668;-72
2024/02/21 08:29:53;;;;;;;13.93;5.37;;;6.80;99.90;;;;;;493966;241;28495;-72
2024/02/21 08:31:55;;;;;;;12.52;5.55;;;6.80;99.90;;;;;;493935;241;29432;-74
2024/02/21 08:33:56;;;;;;;14.15;5.25;;;6.90;99.90;;;;;;493985;241;27517;-75
2024/02/21 08:35:57;;;;;;;14.35;4.75;;;6.90;99.90;;;;;;493994;241;27513;-73
2024/02/21 08:37:58;;;;;;;11.70;4.83;;;7.00;99.90;;;;;;493919;241;27509;-75
2024/02/21 08:40:08;;;;;;;9.73;4.97;;;7.00;99.90;;;;;;493956;241;28812;-73
2024/02/21 08:42:01;;;;;;;18.70;6.00;;;7.00;99.90;;;;;;493679;241;28054;-73
2024/02/21 08:44:03;;;;;;;9.30;4.73;;;6.90;99.90;;;;;;493850;241;28165;-74
2024/02/21 08:46:03;;;;;;;8.57;4.23;;;6.90;99.90;;;;;;493963;241;28605;-73
2024/02/21 08:48:05;;;;;;;8.63;3.90;;;7.00;99.90;;;;;;493920;241;28470;-74
2024/02/21 08:50:06;;;;;;;12.70;5.00;;;7.00;99.90;;;;;;493911;241;29796;-73
2024/02/21 08:52:07;;;;;;;10.47;4.80;;;7.10;99.90;;;;;;493997;241;28793;-74
2024/02/21 08:54:08;;;;;;;11.87;4.90;;;7.10;99.90;;;;;;493959;241;27763;-74
2024/02/21 08:56:10;;;;;;;12.10;5.70;;;7.10;99.90;;;;;;493805;241;28034;-73
2024/02/21 08:58:11;;;;;;;13.30;4.70;;;7.20;99.90;;;;;;493873;241;28056;-74
2024/02/21 09:00:12;;;;;;;11.20;4.90;;;7.20;99.90;;;;;;493991;241;27729;-76
2024/02/21 09:02:16;;;;;;;12.07;5.70;;;7.20;99.90;;;;;;493993;241;27821;-74
2024/02/21 09:04:15;;;;;;;10.63;4.53;;;7.30;99.90;;;;;;493866;241;27779;-74
2024/02/21 09:06:16;;;;;;;11.07;5.17;;;7.40;99.90;;;;;;493940;241;27935;-74
2024/02/21 09:08:18;;;;;;;12.00;5.00;;;7.40;99.90;;;;;;493873;241;28026;-74
2024/02/21 09:10:18;;;;;;;12.53;4.97;;;7.50;99.90;;;;;;493956;241;27865;-77
2024/02/21 09:12:20;;;;;;;10.80;4.90;;;7.60;99.90;;;;;;493985;241;27816;-74
2024/02/21 09:14:22;;;;;;;11.43;4.93;;;7.70;99.90;;;;;;493861;241;27728;-75
2024/02/21 09:16:23;;;;;;;13.00;4.30;;;7.70;99.90;;;;;;493940;241;28142;-74
2024/02/21 09:18:24;;;;;;;12.90;4.50;;;7.70;99.90;;;;;;493987;241;27842;-74
2024/02/21 09:20:25;;;;;;;14.27;4.90;;;7.70;99.90;;;;;;493993;241;28031;-74
2024/02/21 09:22:26;;;;;;;13.70;5.03;;;7.60;99.90;;;;;;494029;241;28028;-74
2024/02/21 09:24:27;;;;;;;10.90;4.60;;;7.70;99.90;;;;;;493984;241;27971;-74
2024/02/21 09:26:29;;;;;;;11.97;4.40;;;7.70;99.90;;;;;;493989;241;28140;-73
2024/02/21 09:28:30;;;;;;;15.17;4.23;;;7.70;99.90;;;;;;494027;241;28362;-74
2024/02/21 09:30:31;;;;;;;9.13;4.57;;;7.60;99.90;;;;;;494002;241;28240;-75
2024/02/21 09:32:36;;;;;;;12.57;4.43;;;7.70;99.90;;;;;;493972;241;28143;-74
2024/02/21 09:34:36;;;;;;;15.60;5.40;;;7.80;99.90;;;;;;493970;241;27838;-71
2024/02/21 09:36:40;;;;;;;10.37;4.10;;;7.90;99.90;;;;;;493917;241;27979;-75
2024/02/21 09:38:39;;;;;;;12.30;4.30;;;7.90;99.90;;;;;;493972;241;27879;-77
2024/02/21 09:40:42;;;;;;;9.50;4.10;;;7.90;99.90;;;;;;493958;241;28383;-73
2024/02/21 09:42:41;;;;;;;10.30;4.27;;;7.80;99.90;;;;;;493922;241;28546;-75
2024/02/21 09:44:44;;;;;;;16.70;4.13;;;7.90;99.90;;;;;;493997;241;28426;-73
2024/02/21 09:46:44;;;;;;;12.70;4.17;;;8.00;99.90;;;;;;493938;241;28264;-74
2024/02/21 09:48:45;;;;;;;14.00;4.43;;;8.10;99.90;;;;;;494019;241;28105;-75
2024/02/21 09:50:46;;;;;;;11.97;4.40;;;8.20;99.90;;;;;;494018;241;27943;-74
2024/02/21 09:52:48;;;;;;;13.30;4.57;;;8.30;99.90;;;;;;494006;241;28000;-74
2024/02/21 09:54:52;;;;;;;14.33;4.00;;;8.30;99.90;;;;;;494024;241;27848;-74
2024/02/21 09:56:50;;;;;;;11.00;5.00;;;8.20;99.90;;;;;;493882;241;27982;-74
2024/02/21 09:58:51;;;;;;;9.10;3.30;;;8.30;99.90;;;;;;494013;241;28479;-75
2024/02/21 10:00:53;;;;;;;17.83;4.57;;;8.30;99.90;;;;;;494011;241;27573;-74
2024/02/21 10:02:54;;;;;;;8.33;4.10;;;8.30;99.90;;;;;;493946;241;27911;-74
2024/02/21 10:04:55;;;;;;;10.27;4.20;;;8.40;99.90;;;;;;493976;241;28657;-77
2024/02/21 10:06:56;;;;;;;17.70;3.47;;;8.50;99.90;;;;;;493941;241;28371;-74
2024/02/21 10:08:58;;;;;;;11.17;4.13;;;8.50;99.90;;;;;;493997;241;28229;-74
2024/02/21 10:11:00;;;;;;;8.47;4.20;;;8.50;99.90;;;;;;493973;241;28402;-74
2024/02/21 10:13:00;;;;;;;8.53;3.90;;;8.40;99.90;;;;;;493847;241;28069;-74
2024/02/21 10:15:01;;;;;;;13.23;3.93;;;8.40;99.90;;;;;;494001;241;27879;-74
2024/02/21 10:17:04;;;;;;;15.40;4.07;;;8.40;99.90;;;;;;493917;241;27949;-73
2024/02/21 10:19:04;;;;;;;8.40;3.67;;;8.40;99.90;;;;;;493893;241;27907;-74
2024/02/21 10:21:06;;;;;;;11.70;4.37;;;8.40;99.90;;;;;;493932;241;27810;-72
2024/02/21 10:23:11;;;;;;;13.80;4.30;;;8.40;99.90;;;;;;493979;241;27817;-74
2024/02/21 10:25:12;;;;;;;8.20;4.00;;;8.50;99.90;;;;;;493960;241;27870;-73
2024/02/21 10:27:13;;;;;;;5.43;3.63;;;8.60;99.90;;;;;;493927;241;27833;-73
2024/02/21 10:29:14;;;;;;;12.93;4.60;;;8.70;99.90;;;;;;493922;241;27887;-73
2024/02/21 10:31:16;;;;;;;12.33;3.67;;;8.70;99.90;;;;;;493922;241;28678;-75